首页
METAR-TAF:

METAR-TAF

机场 :

汕头, 中华人民共和国

揭阳潮汕国际机场

纬度: 23-24N, 经度: 116-41E, 海拔: 3米

当前天气观测

该预报发布于48分钟前的05:00 UTC
风速2节,风向多变
温度 25°C
湿度 61%
气压 1018 hPa
能见度10公里或以上
1500米以下无云,无积雨云

METAR: ZGOW 250500Z VRB01MPS CAVOK 25/17 Q1018 NOSIG

时间: 13:48 (05:48 UTC)

预报

该预报发布于2小时和42分钟前的03:06 UTC
预报有效从25日的 06点(UTC)到 26日的 06点(UTC)
风速8节,风向
能見度: 6000
少量云层高于2100英尺
多云层高于5000英尺
短暂存在
从 25日的 08点(UTC)到 25日的 12点(UTC)
能見度: 3200
少量云层高于600英尺
少量云层高于2600英尺, 积雨云.
多云层高于3000英尺
小阵雨, 轻雾

TAF: ZGOW 250306Z 2506/2606 01004MPS 6000 FEW021 BKN050 TX25/2506Z TN15/2522Z TEMPO 2508/2512 3200 -SHRA BR FEW006 FEW026CB BKN030

超过4000个机场的气象观测和天气预报(METAR&TAF报告)。

可查询的气象台以黄色和红色小点在地图上表示。

将鼠标移到小点上方,可查看气象台名称。

然后点击查看天气观测和预报。

如需切换地图:点击带黑十字的绿色按钮放大地图;点击带横线的绿色按钮缩小地图;或者点击绿色箭头查看邻近地区的地图。


METAR-TAF: